sensor_id;sensor_type;location;lat;lon;timestamp;P1;durP1;ratioP1;P2;durP2;ratioP2
4595;SDS011;2310;49.978;8.742;2023-03-26T00:00:39;7.60;;;2.53;;
4595;SDS011;2310;49.978;8.742;2023-03-26T00:04:43;5.37;;;1.90;;
4595;SDS011;2310;49.978;8.742;2023-03-26T00:08:46;5.13;;;2.10;;
4595;SDS011;2310;49.978;8.742;2023-03-26T00:12:47;7.93;;;2.10;;
4595;SDS011;2310;49.978;8.742;2023-03-26T00:16:49;7.50;;;1.97;;
4595;SDS011;2310;49.978;8.742;2023-03-26T00:20:50;6.83;;;2.53;;
4595;SDS011;2310;49.978;8.742;2023-03-26T00:24:51;7.37;;;2.53;;
4595;SDS011;2310;49.978;8.742;2023-03-26T00:28:53;6.63;;;2.27;;
4595;SDS011;2310;49.978;8.742;2023-03-26T00:32:54;6.20;;;2.30;;
4595;SDS011;2310;49.978;8.742;2023-03-26T00:36:56;9.50;;;2.30;;
4595;SDS011;2310;49.978;8.742;2023-03-26T00:40:59;7.13;;;2.57;;
4595;SDS011;2310;49.978;8.742;2023-03-26T00:45:06;5.90;;;2.00;;
4595;SDS011;2310;49.978;8.742;2023-03-26T00:49:07;5.93;;;2.27;;
4595;SDS011;2310;49.978;8.742;2023-03-26T00:53:11;4.73;;;2.37;;
4595;SDS011;2310;49.978;8.742;2023-03-26T00:57:13;4.63;;;2.50;;
4595;SDS011;2310;49.978;8.742;2023-03-26T01:01:18;5.50;;;2.50;;
4595;SDS011;2310;49.978;8.742;2023-03-26T01:09:44;10.47;;;2.97;;
4595;SDS011;2310;49.978;8.742;2023-03-26T01:13:59;7.07;;;2.63;;
4595;SDS011;2310;49.978;8.742;2023-03-26T01:18:03;11.27;;;4.10;;
4595;SDS011;2310;49.978;8.742;2023-03-26T01:22:08;8.90;;;3.43;;
4595;SDS011;2310;49.978;8.742;2023-03-26T01:26:20;8.43;;;2.90;;
4595;SDS011;2310;49.978;8.742;2023-03-26T01:30:27;6.00;;;2.50;;
4595;SDS011;2310;49.978;8.742;2023-03-26T01:34:35;9.53;;;3.10;;
4595;SDS011;2310;49.978;8.742;2023-03-26T01:38:48;6.30;;;2.37;;
4595;SDS011;2310;49.978;8.742;2023-03-26T01:47:11;9.27;;;2.73;;
4595;SDS011;2310;49.978;8.742;2023-03-26T01:51:23;9.53;;;2.93;;
4595;SDS011;2310;49.978;8.742;2023-03-26T01:55:18;7.00;;;2.53;;
4595;SDS011;2310;49.978;8.742;2023-03-26T01:59:39;9.93;;;2.90;;
4595;SDS011;2310;49.978;8.742;2023-03-26T02:03:52;5.27;;;2.80;;
4595;SDS011;2310;49.978;8.742;2023-03-26T02:08:02;7.17;;;2.83;;
4595;SDS011;2310;49.978;8.742;2023-03-26T02:12:04;9.37;;;3.03;;
4595;SDS011;2310;49.978;8.742;2023-03-26T02:16:07;6.10;;;2.73;;
4595;SDS011;2310;49.978;8.742;2023-03-26T02:20:13;8.57;;;2.63;;
4595;SDS011;2310;49.978;8.742;2023-03-26T02:24:16;11.57;;;2.90;;
4595;SDS011;2310;49.978;8.742;2023-03-26T02:28:18;5.80;;;2.20;;
4595;SDS011;2310;49.978;8.742;2023-03-26T02:32:19;10.03;;;2.77;;
4595;SDS011;2310;49.978;8.742;2023-03-26T02:36:21;6.30;;;2.80;;
4595;SDS011;2310;49.978;8.742;2023-03-26T02:40:26;5.00;;;2.60;;
4595;SDS011;2310;49.978;8.742;2023-03-26T02:44:27;7.90;;;2.70;;
4595;SDS011;2310;49.978;8.742;2023-03-26T02:48:29;7.33;;;2.87;;
4595;SDS011;2310;49.978;8.742;2023-03-26T02:52:31;7.77;;;2.87;;
4595;SDS011;2310;49.978;8.742;2023-03-26T02:56:33;7.00;;;2.97;;
4595;SDS011;2310;49.978;8.742;2023-03-26T03:00:34;9.07;;;2.67;;
4595;SDS011;2310;49.978;8.742;2023-03-26T03:04:35;7.67;;;3.60;;
4595;SDS011;2310;49.978;8.742;2023-03-26T03:08:37;10.80;;;3.30;;
4595;SDS011;2310;49.978;8.742;2023-03-26T03:12:42;5.17;;;2.47;;
4595;SDS011;2310;49.978;8.742;2023-03-26T03:16:41;6.43;;;2.93;;
4595;SDS011;2310;49.978;8.742;2023-03-26T03:20:42;10.20;;;3.30;;
4595;SDS011;2310;49.978;8.742;2023-03-26T03:24:44;8.77;;;2.90;;
4595;SDS011;2310;49.978;8.742;2023-03-26T03:28:49;6.10;;;3.00;;
4595;SDS011;2310;49.978;8.742;2023-03-26T03:32:50;8.53;;;3.40;;
4595;SDS011;2310;49.978;8.742;2023-03-26T03:36:52;10.13;;;3.70;;
4595;SDS011;2310;49.978;8.742;2023-03-26T03:40:53;7.40;;;4.13;;
4595;SDS011;2310;49.978;8.742;2023-03-26T03:44:55;7.33;;;3.23;;
4595;SDS011;2310;49.978;8.742;2023-03-26T03:48:56;8.70;;;3.77;;
4595;SDS011;2310;49.978;8.742;2023-03-26T03:52:57;12.20;;;3.30;;
4595;SDS011;2310;49.978;8.742;2023-03-26T03:56:58;11.37;;;3.40;;
4595;SDS011;2310;49.978;8.742;2023-03-26T04:01:02;6.57;;;2.83;;
4595;SDS011;2310;49.978;8.742;2023-03-26T04:05:04;8.70;;;3.57;;
4595;SDS011;2310;49.978;8.742;2023-03-26T04:09:06;7.73;;;2.60;;
4595;SDS011;2310;49.978;8.742;2023-03-26T04:13:07;12.17;;;3.80;;
4595;SDS011;2310;49.978;8.742;2023-03-26T04:17:08;11.17;;;3.57;;
4595;SDS011;2310;49.978;8.742;2023-03-26T04:21:10;8.90;;;3.10;;
4595;SDS011;2310;49.978;8.742;2023-03-26T04:25:12;7.00;;;3.47;;
4595;SDS011;2310;49.978;8.742;2023-03-26T04:29:15;7.03;;;3.40;;
4595;SDS011;2310;49.978;8.742;2023-03-26T04:33:18;8.43;;;3.53;;
4595;SDS011;2310;49.978;8.742;2023-03-26T04:37:25;12.10;;;3.57;;
4595;SDS011;2310;49.978;8.742;2023-03-26T04:41:28;12.30;;;3.33;;
4595;SDS011;2310;49.978;8.742;2023-03-26T04:45:30;8.07;;;3.10;;
4595;SDS011;2310;49.978;8.742;2023-03-26T04:51:08;6.50;;;2.33;;
4595;SDS011;2310;49.978;8.742;2023-03-26T04:55:16;6.30;;;3.03;;
4595;SDS011;2310;49.978;8.742;2023-03-26T04:59:20;8.13;;;3.13;;
4595;SDS011;2310;49.978;8.742;2023-03-26T05:03:26;8.93;;;2.83;;
4595;SDS011;2310;49.978;8.742;2023-03-26T05:07:29;10.77;;;3.60;;
4595;SDS011;2310;49.978;8.742;2023-03-26T05:11:31;8.43;;;3.47;;
4595;SDS011;2310;49.978;8.742;2023-03-26T05:15:32;9.93;;;3.33;;
4595;SDS011;2310;49.978;8.742;2023-03-26T05:19:33;6.93;;;2.20;;
4595;SDS011;2310;49.978;8.742;2023-03-26T05:23:34;6.50;;;2.10;;
4595;SDS011;2310;49.978;8.742;2023-03-26T05:27:36;7.10;;;2.87;;
4595;SDS011;2310;49.978;8.742;2023-03-26T05:31:37;7.07;;;3.30;;
4595;SDS011;2310;49.978;8.742;2023-03-26T05:35:38;9.17;;;3.00;;
4595;SDS011;2310;49.978;8.742;2023-03-26T05:39:40;13.83;;;3.37;;
4595;SDS011;2310;49.978;8.742;2023-03-26T05:43:43;9.93;;;4.03;;
4595;SDS011;2310;49.978;8.742;2023-03-26T05:47:45;5.27;;;2.73;;
4595;SDS011;2310;49.978;8.742;2023-03-26T05:51:48;6.10;;;2.80;;
4595;SDS011;2310;49.978;8.742;2023-03-26T05:55:50;7.33;;;3.10;;
4595;SDS011;2310;49.978;8.742;2023-03-26T05:59:58;11.30;;;3.33;;
4595;SDS011;2310;49.978;8.742;2023-03-26T06:03:59;8.57;;;3.07;;
4595;SDS011;2310;49.978;8.742;2023-03-26T06:08:00;10.30;;;3.50;;
4595;SDS011;2310;49.978;8.742;2023-03-26T06:12:02;6.83;;;3.30;;
4595;SDS011;2310;49.978;8.742;2023-03-26T06:16:08;8.90;;;3.40;;
4595;SDS011;2310;49.978;8.742;2023-03-26T06:20:12;7.83;;;3.30;;
4595;SDS011;2310;49.978;8.742;2023-03-26T06:24:13;10.67;;;3.83;;
4595;SDS011;2310;49.978;8.742;2023-03-26T06:28:16;8.90;;;2.93;;
4595;SDS011;2310;49.978;8.742;2023-03-26T06:32:17;6.73;;;2.73;;
4595;SDS011;2310;49.978;8.742;2023-03-26T06:36:20;10.23;;;4.50;;
4595;SDS011;2310;49.978;8.742;2023-03-26T06:40:22;9.63;;;3.40;;
4595;SDS011;2310;49.978;8.742;2023-03-26T06:44:23;5.97;;;3.03;;
4595;SDS011;2310;49.978;8.742;2023-03-26T06:48:25;9.83;;;3.37;;
4595;SDS011;2310;49.978;8.742;2023-03-26T06:52:26;11.97;;;3.20;;
4595;SDS011;2310;49.978;8.742;2023-03-26T06:56:28;17.37;;;4.10;;
4595;SDS011;2310;49.978;8.742;2023-03-26T07:00:29;11.33;;;3.20;;
4595;SDS011;2310;49.978;8.742;2023-03-26T07:04:30;12.77;;;3.10;;
4595;SDS011;2310;49.978;8.742;2023-03-26T07:08:32;9.80;;;3.70;;
4595;SDS011;2310;49.978;8.742;2023-03-26T07:12:33;13.40;;;2.93;;
4595;SDS011;2310;49.978;8.742;2023-03-26T07:16:34;10.27;;;3.70;;
4595;SDS011;2310;49.978;8.742;2023-03-26T07:20:36;14.73;;;4.30;;
4595;SDS011;2310;49.978;8.742;2023-03-26T07:24:38;8.07;;;3.03;;
4595;SDS011;2310;49.978;8.742;2023-03-26T07:28:41;10.27;;;4.10;;
4595;SDS011;2310;49.978;8.742;2023-03-26T07:37:11;7.07;;;3.30;;
4595;SDS011;2310;49.978;8.742;2023-03-26T07:49:42;11.23;;;4.97;;
4595;SDS011;2310;49.978;8.742;2023-03-26T07:53:44;5.90;;;3.57;;
4595;SDS011;2310;49.978;8.742;2023-03-26T07:57:58;10.10;;;4.00;;
4595;SDS011;2310;49.978;8.742;2023-03-26T08:02:17;11.07;;;4.40;;
4595;SDS011;2310;49.978;8.742;2023-03-26T08:06:37;10.53;;;3.87;;
4595;SDS011;2310;49.978;8.742;2023-03-26T08:10:42;9.40;;;3.80;;
4595;SDS011;2310;49.978;8.742;2023-03-26T08:32:08;12.50;;;4.60;;
4595;SDS011;2310;49.978;8.742;2023-03-26T08:36:10;6.70;;;3.07;;
4595;SDS011;2310;49.978;8.742;2023-03-26T08:40:11;7.57;;;3.50;;
4595;SDS011;2310;49.978;8.742;2023-03-26T08:44:29;8.33;;;3.67;;
4595;SDS011;2310;49.978;8.742;2023-03-26T08:48:39;11.50;;;4.43;;
4595;SDS011;2310;49.978;8.742;2023-03-26T08:57:30;12.63;;;4.30;;
4595;SDS011;2310;49.978;8.742;2023-03-26T09:32:12;4.93;;;2.60;;
4595;SDS011;2310;49.978;8.742;2023-03-26T09:40:28;7.10;;;2.90;;
4595;SDS011;2310;49.978;8.742;2023-03-26T09:49:01;5.47;;;2.73;;
4595;SDS011;2310;49.978;8.742;2023-03-26T09:57:48;6.73;;;2.30;;
4595;SDS011;2310;49.978;8.742;2023-03-26T10:06:31;7.43;;;2.10;;
4595;SDS011;2310;49.978;8.742;2023-03-26T10:10:51;6.50;;;3.07;;
4595;SDS011;2310;49.978;8.742;2023-03-26T10:19:22;6.03;;;2.20;;
4595;SDS011;2310;49.978;8.742;2023-03-26T10:27:42;5.10;;;2.50;;
4595;SDS011;2310;49.978;8.742;2023-03-26T10:36:29;4.13;;;2.00;;
4595;SDS011;2310;49.978;8.742;2023-03-26T10:40:42;3.90;;;1.37;;
4595;SDS011;2310;49.978;8.742;2023-03-26T10:53:42;3.30;;;1.87;;
4595;SDS011;2310;49.978;8.742;2023-03-26T10:58:02;4.00;;;1.70;;
4595;SDS011;2310;49.978;8.742;2023-03-26T11:02:19;3.70;;;1.80;;
4595;SDS011;2310;49.978;8.742;2023-03-26T11:06:34;3.07;;;1.60;;
4595;SDS011;2310;49.978;8.742;2023-03-26T11:10:46;3.60;;;1.47;;
4595;SDS011;2310;49.978;8.742;2023-03-26T11:19:22;7.97;;;2.00;;
4595;SDS011;2310;49.978;8.742;2023-03-26T11:27:46;4.50;;;2.03;;
4595;SDS011;2310;49.978;8.742;2023-03-26T11:32:10;4.80;;;3.43;;
4595;SDS011;2310;49.978;8.742;2023-03-26T11:36:18;3.90;;;1.87;;
4595;SDS011;2310;49.978;8.742;2023-03-26T11:40:30;7.30;;;2.30;;
4595;SDS011;2310;49.978;8.742;2023-03-26T11:44:40;6.80;;;3.30;;
4595;SDS011;2310;49.978;8.742;2023-03-26T11:48:47;6.90;;;2.87;;
4595;SDS011;2310;49.978;8.742;2023-03-26T11:52:52;4.70;;;2.60;;
4595;SDS011;2310;49.978;8.742;2023-03-26T11:56:56;5.63;;;2.10;;
4595;SDS011;2310;49.978;8.742;2023-03-26T12:01:04;4.20;;;2.50;;
4595;SDS011;2310;49.978;8.742;2023-03-26T12:09:20;9.20;;;5.87;;
4595;SDS011;2310;49.978;8.742;2023-03-26T12:13:38;4.43;;;2.63;;
4595;SDS011;2310;49.978;8.742;2023-03-26T12:17:41;7.53;;;4.10;;
4595;SDS011;2310;49.978;8.742;2023-03-26T12:21:44;3.70;;;2.30;;
4595;SDS011;2310;49.978;8.742;2023-03-26T12:25:47;7.60;;;2.17;;
4595;SDS011;2310;49.978;8.742;2023-03-26T12:30:09;5.00;;;2.10;;
4595;SDS011;2310;49.978;8.742;2023-03-26T12:34:18;4.37;;;2.27;;
4595;SDS011;2310;49.978;8.742;2023-03-26T12:38:22;5.77;;;2.10;;
4595;SDS011;2310;49.978;8.742;2023-03-26T12:42:32;4.90;;;2.80;;
4595;SDS011;2310;49.978;8.742;2023-03-26T12:46:34;4.50;;;2.67;;
4595;SDS011;2310;49.978;8.742;2023-03-26T12:59:28;5.53;;;3.23;;
4595;SDS011;2310;49.978;8.742;2023-03-26T13:03:35;6.80;;;3.33;;
4595;SDS011;2310;49.978;8.742;2023-03-26T13:16:26;3.40;;;2.13;;
4595;SDS011;2310;49.978;8.742;2023-03-26T13:25:05;3.63;;;1.40;;
4595;SDS011;2310;49.978;8.742;2023-03-26T13:38:10;2.93;;;0.80;;
4595;SDS011;2310;49.978;8.742;2023-03-26T13:46:42;4.13;;;1.43;;
4595;SDS011;2310;49.978;8.742;2023-03-26T13:51:02;3.50;;;1.60;;
4595;SDS011;2310;49.978;8.742;2023-03-26T13:55:18;2.60;;;0.70;;
4595;SDS011;2310;49.978;8.742;2023-03-26T13:59:39;7.20;;;1.37;;
4595;SDS011;2310;49.978;8.742;2023-03-26T14:03:54;2.93;;;1.13;;
4595;SDS011;2310;49.978;8.742;2023-03-26T14:08:16;2.50;;;0.77;;
4595;SDS011;2310;49.978;8.742;2023-03-26T14:16:38;3.17;;;1.00;;
4595;SDS011;2310;49.978;8.742;2023-03-26T14:20:48;5.90;;;1.50;;
4595;SDS011;2310;49.978;8.742;2023-03-26T14:29:21;3.70;;;1.00;;
4595;SDS011;2310;49.978;8.742;2023-03-26T14:41:50;3.37;;;1.40;;
4595;SDS011;2310;49.978;8.742;2023-03-26T14:45:58;6.57;;;1.43;;
4595;SDS011;2310;49.978;8.742;2023-03-26T14:54:33;3.80;;;1.63;;
4595;SDS011;2310;49.978;8.742;2023-03-26T15:20:37;7.30;;;2.80;;
4595;SDS011;2310;49.978;8.742;2023-03-26T15:29:00;4.20;;;1.57;;
4595;SDS011;2310;49.978;8.742;2023-03-26T15:33:29;4.90;;;1.53;;
4595;SDS011;2310;49.978;8.742;2023-03-26T15:37:44;3.60;;;1.07;;
4595;SDS011;2310;49.978;8.742;2023-03-26T15:51:12;4.93;;;1.90;;
4595;SDS011;2310;49.978;8.742;2023-03-26T15:55:20;5.47;;;1.63;;
4595;SDS011;2310;49.978;8.742;2023-03-26T15:59:41;4.37;;;1.67;;
4595;SDS011;2310;49.978;8.742;2023-03-26T16:04:04;5.40;;;1.47;;
4595;SDS011;2310;49.978;8.742;2023-03-26T16:25:29;2.47;;;0.73;;
4595;SDS011;2310;49.978;8.742;2023-03-26T16:29:33;2.10;;;0.43;;
4595;SDS011;2310;49.978;8.742;2023-03-26T16:33:37;2.23;;;0.50;;
4595;SDS011;2310;49.978;8.742;2023-03-26T16:38:03;3.63;;;1.00;;
4595;SDS011;2310;49.978;8.742;2023-03-26T16:42:53;3.03;;;1.17;;
4595;SDS011;2310;49.978;8.742;2023-03-26T16:55:06;2.63;;;0.50;;
4595;SDS011;2310;49.978;8.742;2023-03-26T16:59:43;2.90;;;0.80;;
4595;SDS011;2310;49.978;8.742;2023-03-26T17:03:53;2.30;;;0.63;;
4595;SDS011;2310;49.978;8.742;2023-03-26T17:21:35;2.10;;;0.50;;
4595;SDS011;2310;49.978;8.742;2023-03-26T17:25:50;2.50;;;0.70;;
4595;SDS011;2310;49.978;8.742;2023-03-26T17:33:52;3.30;;;0.93;;
4595;SDS011;2310;49.978;8.742;2023-03-26T17:37:55;2.97;;;1.17;;
4595;SDS011;2310;49.978;8.742;2023-03-26T17:42:17;3.40;;;0.87;;
4595;SDS011;2310;49.978;8.742;2023-03-26T17:46:26;4.57;;;0.97;;
4595;SDS011;2310;49.978;8.742;2023-03-26T17:50:53;4.80;;;1.17;;
4595;SDS011;2310;49.978;8.742;2023-03-26T17:54:57;2.40;;;0.90;;
4595;SDS011;2310;49.978;8.742;2023-03-26T17:59:00;3.07;;;1.30;;
4595;SDS011;2310;49.978;8.742;2023-03-26T18:11:36;4.70;;;0.97;;
4595;SDS011;2310;49.978;8.742;2023-03-26T18:16:01;4.00;;;0.90;;
4595;SDS011;2310;49.978;8.742;2023-03-26T18:20:04;3.00;;;1.20;;
4595;SDS011;2310;49.978;8.742;2023-03-26T18:24:12;2.70;;;0.90;;
4595;SDS011;2310;49.978;8.742;2023-03-26T18:28:15;4.50;;;1.40;;
4595;SDS011;2310;49.978;8.742;2023-03-26T18:32:18;4.07;;;1.30;;
4595;SDS011;2310;49.978;8.742;2023-03-26T18:36:22;3.73;;;1.03;;
4595;SDS011;2310;49.978;8.742;2023-03-26T18:40:32;6.03;;;1.20;;
4595;SDS011;2310;49.978;8.742;2023-03-26T18:44:34;3.53;;;1.17;;
4595;SDS011;2310;49.978;8.742;2023-03-26T18:48:39;3.10;;;1.20;;
4595;SDS011;2310;49.978;8.742;2023-03-26T18:52:41;2.73;;;1.03;;
4595;SDS011;2310;49.978;8.742;2023-03-26T18:56:47;3.00;;;0.90;;
4595;SDS011;2310;49.978;8.742;2023-03-26T19:00:51;2.37;;;0.77;;
4595;SDS011;2310;49.978;8.742;2023-03-26T19:04:55;2.60;;;1.10;;
4595;SDS011;2310;49.978;8.742;2023-03-26T19:08:57;3.10;;;1.00;;
4595;SDS011;2310;49.978;8.742;2023-03-26T19:12:59;4.33;;;1.97;;
4595;SDS011;2310;49.978;8.742;2023-03-26T19:17:03;4.67;;;1.70;;
4595;SDS011;2310;49.978;8.742;2023-03-26T19:21:07;3.67;;;1.90;;
4595;SDS011;2310;49.978;8.742;2023-03-26T19:25:15;4.20;;;2.13;;
4595;SDS011;2310;49.978;8.742;2023-03-26T19:29:17;3.30;;;1.13;;
4595;SDS011;2310;49.978;8.742;2023-03-26T19:33:20;2.13;;;0.70;;
4595;SDS011;2310;49.978;8.742;2023-03-26T19:37:22;5.00;;;1.40;;
4595;SDS011;2310;49.978;8.742;2023-03-26T19:41:36;3.23;;;1.33;;
4595;SDS011;2310;49.978;8.742;2023-03-26T19:45:41;4.40;;;1.20;;
4595;SDS011;2310;49.978;8.742;2023-03-26T19:54:00;5.40;;;2.80;;
4595;SDS011;2310;49.978;8.742;2023-03-26T19:58:08;4.77;;;2.23;;
4595;SDS011;2310;49.978;8.742;2023-03-26T20:02:10;4.40;;;3.40;;
4595;SDS011;2310;49.978;8.742;2023-03-26T20:06:15;3.40;;;1.80;;
4595;SDS011;2310;49.978;8.742;2023-03-26T20:10:19;2.70;;;1.43;;
4595;SDS011;2310;49.978;8.742;2023-03-26T20:14:20;4.10;;;1.43;;
4595;SDS011;2310;49.978;8.742;2023-03-26T20:18:23;5.90;;;3.83;;
4595;SDS011;2310;49.978;8.742;2023-03-26T20:22:25;3.93;;;2.00;;
4595;SDS011;2310;49.978;8.742;2023-03-26T20:26:27;3.57;;;1.90;;
4595;SDS011;2310;49.978;8.742;2023-03-26T20:30:28;4.00;;;1.83;;
4595;SDS011;2310;49.978;8.742;2023-03-26T20:34:32;4.20;;;1.80;;
4595;SDS011;2310;49.978;8.742;2023-03-26T20:38:33;3.17;;;1.63;;
4595;SDS011;2310;49.978;8.742;2023-03-26T20:42:37;4.10;;;2.40;;
4595;SDS011;2310;49.978;8.742;2023-03-26T20:46:38;5.00;;;2.67;;
4595;SDS011;2310;49.978;8.742;2023-03-26T20:50:39;5.37;;;2.53;;
4595;SDS011;2310;49.978;8.742;2023-03-26T20:54:44;5.60;;;2.73;;
4595;SDS011;2310;49.978;8.742;2023-03-26T20:58:47;4.83;;;3.13;;
4595;SDS011;2310;49.978;8.742;2023-03-26T21:02:58;3.57;;;2.60;;
4595;SDS011;2310;49.978;8.742;2023-03-26T21:06:59;4.53;;;3.13;;
4595;SDS011;2310;49.978;8.742;2023-03-26T21:11:03;4.50;;;3.40;;
4595;SDS011;2310;49.978;8.742;2023-03-26T21:15:09;5.63;;;1.73;;
4595;SDS011;2310;49.978;8.742;2023-03-26T21:19:14;2.83;;;1.30;;
4595;SDS011;2310;49.978;8.742;2023-03-26T21:23:18;3.07;;;1.43;;
4595;SDS011;2310;49.978;8.742;2023-03-26T21:27:27;3.47;;;2.00;;
4595;SDS011;2310;49.978;8.742;2023-03-26T21:31:29;2.40;;;1.17;;
4595;SDS011;2310;49.978;8.742;2023-03-26T21:35:31;3.93;;;1.63;;
4595;SDS011;2310;49.978;8.742;2023-03-26T21:39:34;2.60;;;1.50;;
4595;SDS011;2310;49.978;8.742;2023-03-26T21:43:36;3.53;;;1.30;;
4595;SDS011;2310;49.978;8.742;2023-03-26T21:47:37;2.90;;;1.40;;
4595;SDS011;2310;49.978;8.742;2023-03-26T21:51:39;3.23;;;1.10;;
4595;SDS011;2310;49.978;8.742;2023-03-26T21:56:44;2.50;;;0.93;;
4595;SDS011;2310;49.978;8.742;2023-03-26T22:00:11;4.33;;;1.40;;
4595;SDS011;2310;49.978;8.742;2023-03-26T22:04:18;3.20;;;1.77;;
4595;SDS011;2310;49.978;8.742;2023-03-26T22:09:21;3.80;;;2.00;;
4595;SDS011;2310;49.978;8.742;2023-03-26T22:12:38;5.97;;;2.10;;
4595;SDS011;2310;49.978;8.742;2023-03-26T22:16:39;3.90;;;1.70;;
4595;SDS011;2310;49.978;8.742;2023-03-26T22:20:41;5.07;;;2.63;;
4595;SDS011;2310;49.978;8.742;2023-03-26T22:24:43;3.60;;;1.87;;
4595;SDS011;2310;49.978;8.742;2023-03-26T22:28:45;3.50;;;2.30;;
4595;SDS011;2310;49.978;8.742;2023-03-26T22:32:47;3.90;;;2.80;;
4595;SDS011;2310;49.978;8.742;2023-03-26T22:36:49;6.17;;;2.80;;
4595;SDS011;2310;49.978;8.742;2023-03-26T22:40:55;4.10;;;2.77;;
4595;SDS011;2310;49.978;8.742;2023-03-26T22:44:58;5.43;;;3.60;;
4595;SDS011;2310;49.978;8.742;2023-03-26T22:48:59;6.87;;;3.50;;
4595;SDS011;2310;49.978;8.742;2023-03-26T22:53:00;4.60;;;3.60;;
4595;SDS011;2310;49.978;8.742;2023-03-26T22:57:02;5.90;;;4.27;;
4595;SDS011;2310;49.978;8.742;2023-03-26T23:01:04;12.83;;;4.50;;
4595;SDS011;2310;49.978;8.742;2023-03-26T23:05:09;7.97;;;4.90;;
4595;SDS011;2310;49.978;8.742;2023-03-26T23:09:11;7.10;;;4.40;;
4595;SDS011;2310;49.978;8.742;2023-03-26T23:13:14;8.73;;;5.20;;
4595;SDS011;2310;49.978;8.742;2023-03-26T23:17:15;7.97;;;5.50;;
4595;SDS011;2310;49.978;8.742;2023-03-26T23:21:22;7.47;;;5.03;;
4595;SDS011;2310;49.978;8.742;2023-03-26T23:25:21;6.33;;;5.00;;
4595;SDS011;2310;49.978;8.742;2023-03-26T23:29:22;7.10;;;5.27;;
4595;SDS011;2310;49.978;8.742;2023-03-26T23:33:25;8.83;;;5.80;;
4595;SDS011;2310;49.978;8.742;2023-03-26T23:37:29;8.87;;;6.50;;
4595;SDS011;2310;49.978;8.742;2023-03-26T23:41:33;8.90;;;6.03;;
4595;SDS011;2310;49.978;8.742;2023-03-26T23:45:34;8.13;;;5.80;;
4595;SDS011;2310;49.978;8.742;2023-03-26T23:49:37;8.00;;;5.87;;
4595;SDS011;2310;49.978;8.742;2023-03-26T23:53:38;10.13;;;6.23;;
4595;SDS011;2310;49.978;8.742;2023-03-26T23:57:39;8.33;;;5.70;;
